Time;durP1;ratioP1;P1;durP2;ratioP2;P2;SDS_P1;SDS_P2;PMS_P1;PMS_P2;Temp;Humidity;BMP_temperature;BMP_pressure;BME280_temperature;BME280_humidity;BME280_pressure;Samples;Min_cycle;Max_cycle;Signal;HPM_P1;HPM_P2
2024/04/01 00:00:29;;;;;;;1.05;0.90;;;10.70;99.90;;;;;;4978623;28;20424;-79
2024/04/01 00:02:55;;;;;;;2.55;1.20;;;10.90;99.90;;;;;;4972046;28;20036;-81
2024/04/01 00:05:21;;;;;;;1.63;0.90;;;10.70;99.90;;;;;;4970588;28;20073;-79
2024/04/01 00:07:48;;;;;;;2.28;1.00;;;10.70;99.90;;;;;;4969456;28;20034;-80
2024/04/01 00:10:14;;;;;;;3.42;1.10;;;10.60;99.90;;;;;;4957716;28;20038;-80
2024/04/01 00:12:40;;;;;;;5.45;0.70;;;10.60;99.90;;;;;;4955533;28;20476;-80
2024/04/01 00:15:06;;;;;;;3.35;1.45;;;10.60;99.90;;;;;;4963811;28;20121;-79
2024/04/01 00:17:31;;;;;;;1.88;0.80;;;10.60;99.90;;;;;;4970363;28;20436;-80
2024/04/01 00:19:57;;;;;;;1.88;1.00;;;10.60;99.90;;;;;;4965634;28;20476;-80
2024/04/01 00:22:22;;;;;;;2.25;0.90;;;10.50;99.90;;;;;;4986830;28;20538;-80
2024/04/01 00:24:48;;;;;;;1.92;0.90;;;10.50;99.90;;;;;;4967240;28;20110;-80
2024/04/01 00:27:14;;;;;;;0.98;0.75;;;10.50;99.90;;;;;;4957682;28;20504;-80
2024/04/01 00:29:39;;;;;;;2.38;0.70;;;10.60;99.90;;;;;;4974777;28;20045;-80
2024/04/01 00:32:05;;;;;;;2.10;0.60;;;10.60;99.90;;;;;;4986643;28;20039;-80
2024/04/01 00:34:31;;;;;;;1.60;0.70;;;10.70;99.90;;;;;;4971770;28;20042;-80
2024/04/01 00:36:56;;;;;;;0.85;0.70;;;10.60;99.90;;;;;;4988024;28;20052;-81
2024/04/01 00:39:22;;;;;;;1.58;0.82;;;10.50;99.90;;;;;;4987936;28;20057;-81
2024/04/01 00:41:47;;;;;;;1.77;0.65;;;10.60;99.90;;;;;;4963350;28;20052;-80
2024/04/01 00:44:13;;;;;;;1.10;0.60;;;10.60;99.90;;;;;;4960868;28;20040;-80
2024/04/01 00:46:38;;;;;;;3.05;0.50;;;10.60;99.90;;;;;;4954928;28;20034;-80
2024/04/01 00:49:04;;;;;;;0.77;0.35;;;10.70;99.90;;;;;;4969320;28;20085;-80
2024/04/01 00:51:29;;;;;;;1.55;0.60;;;10.60;99.90;;;;;;4988096;28;20042;-80
2024/04/01 00:53:55;;;;;;;1.58;0.40;;;10.70;99.90;;;;;;4957340;28;20085;-80
2024/04/01 00:56:22;;;;;;;0.90;0.40;;;10.60;99.90;;;;;;4955804;28;20046;-81
2024/04/01 00:58:49;;;;;;;1.92;0.60;;;10.60;99.90;;;;;;4974010;28;20481;-81
2024/04/01 01:01:15;;;;;;;0.57;0.50;;;10.60;99.90;;;;;;4957071;28;20477;-81
2024/04/01 01:03:40;;;;;;;4.38;0.77;;;10.50;99.90;;;;;;4955501;28;20069;-80
2024/04/01 01:06:06;;;;;;;1.58;0.60;;;10.60;99.90;;;;;;4957817;28;20031;-81
2024/04/01 01:08:31;;;;;;;1.40;0.50;;;10.60;99.90;;;;;;4958317;28;20069;-80
2024/04/01 01:10:57;;;;;;;2.13;0.70;;;10.60;99.90;;;;;;4971071;28;20084;-81
2024/04/01 01:13:22;;;;;;;1.08;0.45;;;10.60;99.90;;;;;;4990238;28;20030;-81
2024/04/01 01:15:48;;;;;;;1.17;0.45;;;10.60;99.90;;;;;;4957710;28;20097;-82
2024/04/01 01:18:14;;;;;;;1.85;0.50;;;10.60;99.90;;;;;;4969638;28;21542;-81
2024/04/01 01:20:40;;;;;;;0.95;0.57;;;10.60;99.90;;;;;;4971190;28;20062;-81
2024/04/01 01:23:06;;;;;;;1.15;0.40;;;10.60;99.90;;;;;;4968392;28;20185;-81
2024/04/01 01:25:37;;;;;;;2.75;0.55;;;10.60;99.90;;;;;;4971724;28;20032;-81
2024/04/01 01:28:05;;;;;;;1.60;0.68;;;10.70;99.90;;;;;;4972004;28;20026;-81
2024/04/01 01:30:31;;;;;;;0.60;0.40;;;10.50;99.90;;;;;;4976387;28;20041;-81
2024/04/01 01:32:58;;;;;;;1.27;0.40;;;10.40;99.90;;;;;;4973150;28;20108;-80
2024/04/01 01:35:25;;;;;;;0.73;0.50;;;10.40;99.90;;;;;;4972985;28;20040;-81
2024/04/01 01:37:51;;;;;;;4.32;0.60;;;10.50;99.90;;;;;;4955638;28;20038;-81
2024/04/01 01:40:17;;;;;;;1.10;0.47;;;10.60;99.90;;;;;;4973236;28;20376;-81
2024/04/01 01:42:42;;;;;;;0.70;0.32;;;10.60;99.90;;;;;;4971114;28;20563;-81
2024/04/01 01:45:08;;;;;;;2.60;0.40;;;10.60;99.90;;;;;;4972173;28;20039;-81
2024/04/01 01:47:34;;;;;;;1.25;0.52;;;10.60;99.90;;;;;;4969177;28;20039;-81
2024/04/01 01:50:00;;;;;;;1.13;0.50;;;10.50;99.90;;;;;;4956142;28;20030;-81
2024/04/01 01:52:26;;;;;;;2.15;0.57;;;10.40;99.90;;;;;;4984476;28;20399;-80
2024/04/01 01:54:52;;;;;;;1.20;0.55;;;10.40;99.90;;;;;;4960059;28;20035;-81
2024/04/01 01:57:18;;;;;;;2.80;0.50;;;10.50;99.90;;;;;;4958468;28;20369;-80
2024/04/01 01:59:44;;;;;;;0.95;0.47;;;10.40;99.90;;;;;;4961139;28;20112;-81
2024/04/01 02:02:11;;;;;;;0.85;0.38;;;10.30;99.90;;;;;;4972449;28;22303;-81
2024/04/01 02:04:36;;;;;;;3.40;0.45;;;10.20;99.90;;;;;;4958675;28;20041;-80
2024/04/01 02:07:04;;;;;;;0.70;0.50;;;10.20;99.90;;;;;;4984786;28;20442;-81
2024/04/01 02:09:29;;;;;;;1.50;0.70;;;10.20;99.90;;;;;;4955179;28;20108;-82
2024/04/01 02:11:55;;;;;;;1.73;0.60;;;10.10;99.90;;;;;;4987751;28;20042;-81
2024/04/01 02:14:20;;;;;;;0.70;0.50;;;10.00;99.90;;;;;;4955556;28;20047;-81
2024/04/01 02:16:46;;;;;;;1.52;0.50;;;9.90;99.90;;;;;;4988996;28;20045;-81
2024/04/01 02:19:13;;;;;;;1.08;0.40;;;9.90;99.90;;;;;;4971400;28;20043;-82
2024/04/01 02:21:38;;;;;;;2.22;0.50;;;9.90;99.90;;;;;;4956626;28;20516;-81
2024/04/01 02:24:05;;;;;;;1.15;0.57;;;9.90;99.90;;;;;;4990361;28;20537;-81
2024/04/01 02:26:30;;;;;;;4.95;0.77;;;9.90;99.90;;;;;;4966399;28;20031;-81
2024/04/01 02:28:56;;;;;;;1.15;0.40;;;9.80;99.90;;;;;;4971984;28;20041;-82
2024/04/01 02:31:21;;;;;;;3.63;1.98;;;9.80;99.90;;;;;;4957657;28;20465;-81
2024/04/01 02:33:47;;;;;;;0.88;0.40;;;9.80;99.90;;;;;;4956142;28;20034;-81
2024/04/01 02:36:13;;;;;;;2.42;0.55;;;9.90;99.90;;;;;;4969428;28;20042;-81
2024/04/01 02:38:38;;;;;;;1.48;0.50;;;10.00;99.90;;;;;;4988166;28;20034;-82
2024/04/01 02:41:04;;;;;;;1.55;0.50;;;10.10;99.90;;;;;;4955896;28;20030;-81
2024/04/01 02:43:29;;;;;;;1.73;0.43;;;10.10;99.90;;;;;;4959509;28;20041;-81
2024/04/01 02:45:55;;;;;;;3.65;0.65;;;10.00;99.90;;;;;;4969660;28;20034;-81
2024/04/01 02:48:20;;;;;;;2.33;0.30;;;10.00;99.90;;;;;;4974589;28;20034;-81
2024/04/01 02:50:47;;;;;;;2.05;0.40;;;9.90;99.90;;;;;;4973509;28;20062;-81
2024/04/01 02:53:13;;;;;;;0.65;0.30;;;9.90;99.90;;;;;;4959634;28;20069;-81
2024/04/01 02:55:38;;;;;;;2.10;0.40;;;10.00;99.90;;;;;;4972969;28;20030;-81
2024/04/01 02:58:04;;;;;;;1.38;0.50;;;10.10;99.90;;;;;;4973766;28;20034;-81
2024/04/01 03:00:29;;;;;;;0.20;0.20;;;10.10;99.90;;;;;;4971699;28;20105;-81
2024/04/01 03:02:56;;;;;;;1.38;0.43;;;10.00;99.90;;;;;;4955496;28;20038;-81
2024/04/01 03:05:21;;;;;;;0.73;0.43;;;10.00;99.90;;;;;;4988772;28;20501;-80
2024/04/01 03:07:50;;;;;;;2.22;0.30;;;9.90;99.90;;;;;;4956514;28;20045;-80
2024/04/01 03:10:15;;;;;;;0.20;0.20;;;9.90;99.90;;;;;;4968557;28;20038;-81
2024/04/01 03:12:41;;;;;;;5.28;0.95;;;9.80;99.90;;;;;;4953505;28;20046;-80
2024/04/01 03:15:10;;;;;;;2.65;1.80;;;9.80;99.90;;;;;;4968805;28;20030;-80
2024/04/01 03:17:35;;;;;;;1.27;0.50;;;9.70;99.90;;;;;;4958418;28;20030;-81
2024/04/01 03:20:01;;;;;;;1.85;0.20;;;9.60;99.90;;;;;;4973406;28;20076;-80
2024/04/01 03:22:27;;;;;;;2.78;0.43;;;9.50;99.90;;;;;;4957145;28;20030;-80
2024/04/01 03:24:53;;;;;;;2.00;0.43;;;9.40;99.90;;;;;;4953963;28;20043;-80
2024/04/01 03:27:20;;;;;;;0.75;0.38;;;9.40;99.90;;;;;;4970822;28;20448;-80
2024/04/01 03:29:45;;;;;;;2.00;0.70;;;9.40;99.90;;;;;;4971885;28;20031;-81
2024/04/01 03:32:11;;;;;;;1.58;0.40;;;9.40;99.90;;;;;;4969725;28;20034;-81
2024/04/01 03:34:37;;;;;;;1.33;0.40;;;9.40;99.90;;;;;;4969647;28;20061;-81
2024/04/01 03:37:02;;;;;;;3.97;0.77;;;9.30;99.90;;;;;;4975308;28;20084;-82
2024/04/01 03:39:31;;;;;;;1.50;0.47;;;9.40;99.90;;;;;;4973829;28;20038;-82
2024/04/01 03:41:56;;;;;;;1.92;0.47;;;9.40;99.90;;;;;;4974563;28;20034;-81
2024/04/01 03:44:22;;;;;;;0.30;0.30;;;9.40;99.90;;;;;;4974376;28;20042;-81
2024/04/01 03:46:48;;;;;;;1.33;0.43;;;9.50;99.90;;;;;;4955840;28;20034;-81
2024/04/01 03:49:13;;;;;;;0.88;0.30;;;9.50;99.90;;;;;;4972517;28;20061;-83
2024/04/01 03:51:39;;;;;;;2.08;0.52;;;9.50;99.90;;;;;;4987823;28;20077;-81
2024/04/01 03:54:05;;;;;;;1.80;0.40;;;9.40;99.90;;;;;;4972837;28;20035;-81
2024/04/01 03:56:30;;;;;;;0.47;0.30;;;9.40;99.90;;;;;;4952583;28;20400;-81
2024/04/01 03:58:56;;;;;;;2.45;0.50;;;9.30;99.90;;;;;;4971151;28;20046;-81
2024/04/01 04:01:22;;;;;;;1.88;0.57;;;9.30;99.90;;;;;;4973715;28;20039;-81
2024/04/01 04:03:50;;;;;;;1.73;0.80;;;9.40;99.90;;;;;;4975342;28;20125;-81
2024/04/01 04:06:16;;;;;;;4.00;0.60;;;9.40;99.90;;;;;;4977138;28;20073;-81
2024/04/01 04:08:47;;;;;;;1.15;0.60;;;9.50;99.90;;;;;;4976618;28;20428;-80
2024/04/01 04:11:12;;;;;;;3.20;0.32;;;9.40;99.90;;;;;;4987606;28;20039;-81
2024/04/01 04:13:38;;;;;;;0.60;0.47;;;9.50;99.90;;;;;;4986595;28;20084;-81
2024/04/01 04:16:04;;;;;;;1.42;0.80;;;9.60;99.90;;;;;;4962773;28;20034;-80
2024/04/01 04:18:29;;;;;;;1.25;0.35;;;9.60;99.90;;;;;;4978484;28;20125;-81
2024/04/01 04:20:56;;;;;;;3.72;0.75;;;9.50;99.90;;;;;;4990585;28;20023;-81
2024/04/01 04:23:25;;;;;;;4.35;0.50;;;9.50;99.90;;;;;;5013153;28;20038;-81
2024/04/01 04:25:51;;;;;;;2.47;0.80;;;9.50;99.90;;;;;;4991174;28;20087;-81
2024/04/01 04:28:16;;;;;;;4.63;0.50;;;9.60;99.90;;;;;;4981336;28;20045;-81
2024/04/01 04:30:42;;;;;;;4.45;0.60;;;9.60;99.90;;;;;;4974112;28;20026;-80
2024/04/01 04:33:08;;;;;;;1.38;0.70;;;9.60;99.90;;;;;;4972280;28;20045;-81
2024/04/01 04:35:34;;;;;;;2.15;0.63;;;9.50;99.90;;;;;;4959554;28;20765;-81
2024/04/01 04:37:59;;;;;;;3.80;0.60;;;9.40;99.90;;;;;;4975509;28;20891;-81
2024/04/01 04:40:27;;;;;;;0.65;0.50;;;9.30;99.90;;;;;;4974263;28;20027;-81
2024/04/01 04:42:53;;;;;;;1.23;0.60;;;9.20;99.90;;;;;;4989864;28;20064;-81
2024/04/01 04:45:22;;;;;;;1.55;0.57;;;9.30;99.90;;;;;;4972774;28;20378;-81
2024/04/01 04:47:50;;;;;;;1.35;0.50;;;9.40;99.90;;;;;;4957934;28;20492;-81
2024/04/01 04:50:16;;;;;;;3.63;0.70;;;9.40;99.90;;;;;;4956215;28;20039;-81
2024/04/01 04:52:42;;;;;;;0.82;0.50;;;9.50;99.90;;;;;;4987166;28;20044;-81
2024/04/01 04:55:08;;;;;;;1.23;0.60;;;9.50;99.90;;;;;;4994397;28;20033;-81
2024/04/01 04:57:33;;;;;;;4.82;0.60;;;9.50;99.90;;;;;;4985946;28;20481;-81
2024/04/01 04:59:59;;;;;;;0.82;0.40;;;9.50;99.90;;;;;;4975533;28;20066;-81
2024/04/01 05:02:25;;;;;;;4.15;0.52;;;9.40;99.90;;;;;;4975340;28;20112;-80
2024/04/01 05:04:50;;;;;;;0.38;0.35;;;9.50;99.90;;;;;;4970053;28;20054;-80
2024/04/01 05:07:16;;;;;;;0.68;0.47;;;9.50;99.90;;;;;;4972700;28;20039;-81
2024/04/01 05:09:48;;;;;;;0.93;0.50;;;9.50;99.90;;;;;;4958150;28;20040;-81
2024/04/01 05:12:14;;;;;;;0.32;0.32;;;9.60;99.90;;;;;;4957507;28;20042;-81
2024/04/01 05:14:39;;;;;;;0.63;0.50;;;9.60;99.90;;;;;;4965051;28;20034;-81
2024/04/01 05:17:05;;;;;;;1.48;0.50;;;9.60;99.90;;;;;;4975233;28;20354;-81
2024/04/01 05:19:30;;;;;;;2.65;0.60;;;9.60;99.90;;;;;;4971420;28;20117;-81
2024/04/01 05:21:57;;;;;;;1.10;0.63;;;9.50;99.90;;;;;;4975556;28;20085;-81
2024/04/01 05:24:22;;;;;;;4.60;1.45;;;9.50;99.90;;;;;;4961735;28;20038;-81
2024/04/01 05:26:48;;;;;;;1.20;0.65;;;9.40;99.90;;;;;;4988230;28;20030;-81
2024/04/01 05:29:13;;;;;;;1.42;0.90;;;9.50;99.90;;;;;;4973803;28;20508;-81
2024/04/01 05:31:39;;;;;;;3.65;0.65;;;9.30;99.90;;;;;;4976221;28;20037;-81
2024/04/01 05:34:04;;;;;;;1.58;0.95;;;9.30;99.90;;;;;;4987256;28;20035;-81
2024/04/01 05:36:31;;;;;;;1.92;0.70;;;9.30;99.90;;;;;;4987473;28;20391;-80
2024/04/01 05:38:57;;;;;;;1.17;0.80;;;9.30;99.90;;;;;;4985771;28;20475;-81
2024/04/01 05:41:23;;;;;;;2.47;1.08;;;9.30;99.90;;;;;;4961799;28;20030;-81
2024/04/01 05:43:48;;;;;;;4.22;0.90;;;9.30;99.90;;;;;;4958025;28;20027;-81
2024/04/01 05:46:15;;;;;;;1.30;0.60;;;9.30;99.90;;;;;;4971500;28;20018;-80
2024/04/01 05:48:41;;;;;;;1.48;0.73;;;9.30;99.90;;;;;;4980129;28;20181;-80
2024/04/01 05:51:08;;;;;;;2.20;1.00;;;9.20;99.90;;;;;;4988127;28;20050;-80
2024/04/01 05:53:34;;;;;;;2.08;1.00;;;9.20;99.90;;;;;;4986199;28;20039;-80
2024/04/01 05:56:05;;;;;;;0.98;0.90;;;9.20;99.90;;;;;;4969547;28;20502;-81
2024/04/01 05:58:31;;;;;;;1.70;0.73;;;9.30;99.90;;;;;;4972386;28;20415;-81
2024/04/01 06:00:57;;;;;;;1.80;0.90;;;9.30;99.90;;;;;;4975150;28;20408;-80
2024/04/01 06:03:22;;;;;;;2.42;1.10;;;9.20;99.90;;;;;;4986866;28;20037;-80
2024/04/01 06:05:48;;;;;;;1.55;0.95;;;9.20;99.90;;;;;;4973129;28;20037;-80
2024/04/01 06:08:13;;;;;;;4.57;1.05;;;9.20;99.90;;;;;;4960511;28;20030;-81
2024/04/01 06:10:39;;;;;;;1.75;0.80;;;9.20;99.90;;;;;;4969144;28;20030;-81
2024/04/01 06:13:04;;;;;;;1.85;0.68;;;9.20;99.90;;;;;;4985286;28;20038;-81
2024/04/01 06:15:30;;;;;;;2.35;1.50;;;9.20;99.90;;;;;;4971688;28;20092;-80
2024/04/01 06:17:55;;;;;;;2.58;0.70;;;9.30;99.90;;;;;;4952169;28;20464;-80
2024/04/01 06:20:21;;;;;;;4.78;1.20;;;9.30;99.90;;;;;;4988511;28;20045;-80
2024/04/01 06:22:46;;;;;;;4.40;1.30;;;9.30;99.90;;;;;;4958386;28;20035;-81
2024/04/01 06:25:13;;;;;;;0.55;0.47;;;9.30;99.90;;;;;;4968745;28;20037;-82
2024/04/01 06:27:40;;;;;;;1.17;0.40;;;9.30;99.90;;;;;;4991442;28;20096;-80
2024/04/01 06:30:07;;;;;;;1.52;1.15;;;9.30;99.90;;;;;;4957603;28;20400;-81
2024/04/01 06:32:33;;;;;;;2.72;1.73;;;9.30;99.90;;;;;;4971367;28;20524;-82
2024/04/01 06:34:59;;;;;;;1.23;0.80;;;9.40;99.90;;;;;;4954597;28;20099;-81
2024/04/01 06:37:27;;;;;;;2.72;0.90;;;9.40;99.90;;;;;;4990443;28;20458;-81
2024/04/01 06:39:53;;;;;;;2.17;1.50;;;9.40;99.90;;;;;;4972251;28;20034;-81
2024/04/01 06:42:19;;;;;;;3.05;1.30;;;9.40;99.90;;;;;;4961200;28;20504;-82
2024/04/01 06:44:48;;;;;;;3.08;1.02;;;9.40;99.90;;;;;;4960411;28;20083;-82
2024/04/01 06:47:14;;;;;;;2.88;0.82;;;9.50;99.90;;;;;;4978949;28;20483;-81
2024/04/01 06:49:40;;;;;;;0.60;0.52;;;9.50;99.90;;;;;;4955488;28;20115;-82
2024/04/01 06:52:05;;;;;;;1.20;0.90;;;9.50;99.90;;;;;;4971926;28;20137;-80
2024/04/01 06:54:31;;;;;;;1.42;1.05;;;9.50;99.90;;;;;;4962063;28;20190;-82
2024/04/01 06:56:56;;;;;;;1.00;0.55;;;9.50;99.90;;;;;;4960604;28;20030;-83
2024/04/01 06:59:22;;;;;;;0.95;0.55;;;9.40;99.90;;;;;;4970500;28;20048;-83
2024/04/01 07:01:48;;;;;;;1.00;0.70;;;9.50;99.90;;;;;;4971166;28;20034;-80
2024/04/01 07:04:13;;;;;;;2.17;1.80;;;9.50;99.90;;;;;;4960884;28;20027;-81
2024/04/01 07:06:39;;;;;;;2.20;1.77;;;9.60;99.90;;;;;;4974682;28;20379;-79
2024/04/01 07:09:05;;;;;;;2.35;1.42;;;9.60;99.90;;;;;;4972666;28;20104;-80
2024/04/01 07:11:32;;;;;;;1.35;1.13;;;9.70;99.90;;;;;;4972542;28;20045;-80
2024/04/01 07:13:58;;;;;;;2.53;1.17;;;9.80;99.90;;;;;;4987433;28;20134;-79
2024/04/01 07:16:31;;;;;;;2.50;1.10;;;9.70;99.90;;;;;;4972978;28;20548;-80
2024/04/01 07:18:58;;;;;;;2.13;0.70;;;9.60;99.90;;;;;;4956412;28;20065;-80
2024/04/01 07:21:26;;;;;;;1.02;0.90;;;9.70;99.90;;;;;;4983597;28;20031;-79
2024/04/01 07:23:51;;;;;;;0.65;0.52;;;9.80;99.90;;;;;;4983266;28;20648;-82
2024/04/01 07:26:17;;;;;;;1.83;1.23;;;9.80;99.90;;;;;;4972264;28;20026;-80
2024/04/01 07:28:43;;;;;;;4.68;0.90;;;9.70;99.90;;;;;;4979995;28;20158;-82
2024/04/01 07:31:08;;;;;;;1.50;1.17;;;9.80;99.90;;;;;;4959096;28;20080;-82
2024/04/01 07:33:34;;;;;;;2.45;0.93;;;9.80;99.90;;;;;;4973646;28;20121;-82
2024/04/01 07:35:59;;;;;;;1.42;0.80;;;9.90;99.90;;;;;;4975557;28;20042;-81
2024/04/01 07:38:25;;;;;;;5.25;0.98;;;9.90;99.90;;;;;;4978643;28;20038;-81
2024/04/01 07:40:51;;;;;;;2.85;1.15;;;9.90;99.90;;;;;;4973241;28;20117;-82
2024/04/01 07:43:16;;;;;;;2.17;0.60;;;10.00;99.90;;;;;;4977497;28;20377;-86
2024/04/01 07:45:43;;;;;;;1.45;0.80;;;10.00;99.90;;;;;;4977186;28;20061;-81
2024/04/01 07:48:08;;;;;;;1.20;0.90;;;10.10;99.90;;;;;;4959653;28;20037;-81
2024/04/01 07:50:35;;;;;;;1.48;1.00;;;10.20;99.90;;;;;;4994097;28;20038;-82
2024/04/01 07:53:00;;;;;;;0.93;0.57;;;10.20;99.90;;;;;;4981217;28;20104;-81
2024/04/01 07:55:26;;;;;;;1.75;0.80;;;10.30;99.90;;;;;;4988756;28;20065;-80
2024/04/01 07:57:51;;;;;;;1.98;0.82;;;10.30;99.90;;;;;;4985102;28;20117;-81
2024/04/01 08:00:17;;;;;;;0.93;0.60;;;10.40;99.90;;;;;;4991978;28;20193;-81
2024/04/01 08:02:43;;;;;;;1.70;1.05;;;10.40;99.90;;;;;;4987355;28;20058;-81
2024/04/01 08:05:08;;;;;;;1.20;0.85;;;10.50;99.90;;;;;;4958777;28;20030;-83
2024/04/01 08:07:34;;;;;;;3.92;1.50;;;10.50;99.90;;;;;;4983864;28;20027;-84
2024/04/01 08:09:59;;;;;;;2.60;1.08;;;10.50;99.90;;;;;;4975362;28;20378;-83
2024/04/01 08:12:25;;;;;;;1.63;0.95;;;10.60;99.90;;;;;;4989421;28;20034;-83
2024/04/01 08:14:50;;;;;;;2.13;0.70;;;10.70;99.90;;;;;;4984891;28;20176;-81
2024/04/01 08:17:16;;;;;;;2.30;0.77;;;10.70;99.90;;;;;;4971923;28;20041;-81
2024/04/01 08:19:43;;;;;;;2.30;1.10;;;10.80;99.90;;;;;;4958570;28;20034;-81
2024/04/01 08:22:09;;;;;;;1.10;0.88;;;10.80;99.90;;;;;;4976867;28;20392;-81
2024/04/01 08:24:34;;;;;;;2.13;1.30;;;10.80;99.90;;;;;;4988638;28;20038;-80
2024/04/01 08:27:00;;;;;;;1.83;0.98;;;10.90;99.90;;;;;;4988022;28;20422;-81
2024/04/01 08:29:26;;;;;;;1.60;1.20;;;10.80;99.90;;;;;;4986735;28;20362;-80
2024/04/01 08:31:51;;;;;;;1.55;1.10;;;10.90;99.90;;;;;;4964685;28;20172;-80
2024/04/01 08:34:17;;;;;;;1.80;0.95;;;10.90;99.90;;;;;;4989764;28;20049;-81
2024/04/01 08:36:42;;;;;;;1.23;0.85;;;10.80;99.90;;;;;;4985546;28;20034;-81
2024/04/01 08:39:08;;;;;;;2.20;1.15;;;10.80;99.90;;;;;;4977814;28;20479;-81
2024/04/01 08:41:36;;;;;;;1.33;1.00;;;10.80;99.90;;;;;;4971998;28;20416;-80
2024/04/01 08:44:11;;;;;;;2.08;1.15;;;10.80;99.90;;;;;;4988734;28;20439;-81
2024/04/01 08:46:39;;;;;;;1.10;0.70;;;10.80;99.90;;;;;;4987341;28;20038;-81
2024/04/01 08:49:04;;;;;;;1.15;0.95;;;10.80;99.90;;;;;;4971470;28;20499;-81
2024/04/01 08:51:30;;;;;;;2.97;1.10;;;10.80;99.90;;;;;;4977425;28;20030;-81
2024/04/01 08:53:59;;;;;;;2.00;1.33;;;10.70;99.90;;;;;;4974203;28;20113;-80
2024/04/01 08:56:25;;;;;;;2.75;1.38;;;10.70;99.90;;;;;;4964690;28;20039;-78
2024/04/01 08:58:52;;;;;;;4.50;1.67;;;10.60;99.90;;;;;;4958296;28;20385;-78
2024/04/01 09:01:17;;;;;;;3.72;1.65;;;10.70;99.90;;;;;;4977375;28;20022;-79
2024/04/01 09:03:43;;;;;;;3.00;1.40;;;10.70;99.90;;;;;;4998990;28;20037;-77
2024/04/01 09:06:08;;;;;;;5.38;3.13;;;10.60;99.90;;;;;;4968879;28;20072;-79
2024/04/01 09:08:34;;;;;;;3.35;2.72;;;10.60;99.90;;;;;;4993476;28;20728;-78
2024/04/01 09:11:00;;;;;;;3.67;2.60;;;10.50;99.90;;;;;;5008721;28;20026;-78
2024/04/01 09:13:25;;;;;;;3.22;2.22;;;10.50;99.90;;;;;;4993135;28;20074;-79
2024/04/01 09:15:51;;;;;;;3.00;1.80;;;10.50;99.90;;;;;;4991739;28;20127;-80
2024/04/01 09:18:18;;;;;;;2.60;2.03;;;10.50;99.90;;;;;;4975090;28;20038;-80
2024/04/01 09:20:44;;;;;;;3.55;3.00;;;10.50;99.90;;;;;;4971664;28;20034;-80
2024/04/01 09:23:10;;;;;;;2.70;2.47;;;10.40;99.90;;;;;;4957862;28;20038;-78
2024/04/01 09:25:36;;;;;;;3.42;3.10;;;10.40;99.90;;;;;;4962628;28;20039;-79
2024/04/01 09:28:01;;;;;;;3.92;3.55;;;10.40;99.90;;;;;;4956829;28;20038;-79
2024/04/01 09:30:30;;;;;;;6.35;5.32;;;10.40;99.90;;;;;;4989685;28;20034;-80
2024/04/01 09:32:56;;;;;;;6.25;4.07;;;10.30;99.90;;;;;;4953070;28;20463;-79
2024/04/01 09:35:22;;;;;;;6.20;4.93;;;10.30;99.90;;;;;;4987753;28;20408;-78
2024/04/01 09:37:49;;;;;;;8.40;7.03;;;10.30;99.90;;;;;;4951932;28;20522;-79
2024/04/01 09:40:16;;;;;;;7.70;6.78;;;10.40;99.90;;;;;;4970351;28;20400;-80
2024/04/01 09:42:42;;;;;;;6.40;5.25;;;10.30;99.90;;;;;;4971605;28;20023;-79
2024/04/01 09:45:08;;;;;;;9.50;8.60;;;10.40;99.90;;;;;;4960629;28;20042;-78
2024/04/01 09:47:37;;;;;;;8.70;5.30;;;10.30;99.90;;;;;;4984932;28;20026;-78
2024/04/01 09:50:07;;;;;;;7.97;6.55;;;10.30;99.90;;;;;;4986984;28;20444;-78
2024/04/01 09:52:36;;;;;;;7.50;6.22;;;10.30;99.90;;;;;;4962700;28;20384;-79
2024/04/01 09:55:18;;;;;;;9.10;6.80;;;10.40;99.90;;;;;;4989556;28;20115;-78
2024/04/01 09:58:02;;;;;;;7.50;6.55;;;10.40;99.90;;;;;;4969101;28;20518;-78
2024/04/01 10:00:52;;;;;;;8.10;6.43;;;10.30;99.90;;;;;;4961157;28;20492;-79
2024/04/01 10:03:47;;;;;;;9.70;7.72;;;10.40;99.90;;;;;;4974210;28;20050;-77
2024/04/01 10:06:45;;;;;;;9.05;8.23;;;10.30;99.90;;;;;;4992603;28;20026;-78
2024/04/01 10:09:26;;;;;;;9.52;6.80;;;10.40;99.90;;;;;;4972677;28;20030;-78
2024/04/01 10:12:13;;;;;;;7.40;6.75;;;10.30;99.90;;;;;;4994529;28;20029;-78
2024/04/01 10:14:48;;;;;;;5.45;4.95;;;10.40;99.90;;;;;;5004917;28;20084;-78
2024/04/01 10:17:21;;;;;;;8.65;7.85;;;10.40;99.90;;;;;;5015048;28;20031;-78
2024/04/01 10:20:08;;;;;;;6.53;5.93;;;10.40;99.90;;;;;;4961253;28;20504;-78
2024/04/01 10:22:46;;;;;;;9.95;6.35;;;10.40;99.90;;;;;;4983302;28;20452;-78
2024/04/01 10:25:42;;;;;;;14.32;6.65;;;10.50;99.90;;;;;;4990182;28;20042;-76
2024/04/01 10:28:45;;;;;;;8.80;6.50;;;10.60;99.90;;;;;;4983349;28;20019;-77
2024/04/01 10:31:24;;;;;;;6.95;5.05;;;10.60;99.90;;;;;;4995089;28;20053;-77
2024/04/01 10:34:08;;;;;;;8.02;7.13;;;10.60;99.90;;;;;;4975479;28;20091;-78
2024/04/01 10:36:43;;;;;;;7.63;6.93;;;10.60;99.90;;;;;;4986164;28;20030;-77
2024/04/01 10:39:46;;;;;;;9.68;7.68;;;10.70;99.90;;;;;;4990629;28;20034;-77
2024/04/01 10:42:31;;;;;;;10.18;7.40;;;10.70;99.90;;;;;;4985495;28;20044;-77
2024/04/01 10:45:27;;;;;;;7.77;7.03;;;10.70;99.90;;;;;;4955128;28;20481;-77
2024/04/01 10:48:02;;;;;;;5.77;4.40;;;10.60;99.90;;;;;;4971243;28;20042;-77
2024/04/01 10:50:41;;;;;;;8.18;5.80;;;10.60;99.90;;;;;;4970942;28;20038;-77
2024/04/01 10:53:37;;;;;;;6.35;5.07;;;10.60;99.90;;;;;;4988059;28;20500;-77
2024/04/01 10:56:11;;;;;;;11.38;8.73;;;10.60;99.90;;;;;;4983034;28;20030;-77
2024/04/01 10:59:16;;;;;;;9.18;7.93;;;10.70;99.90;;;;;;4986976;28;20818;-78
2024/04/01 11:02:33;;;;;;;9.57;8.27;;;10.70;99.90;;;;;;4982213;28;20481;-77
2024/04/01 11:05:26;;;;;;;12.98;8.93;;;10.80;99.90;;;;;;4972483;28;20042;-79
2024/04/01 11:08:24;;;;;;;13.05;10.15;;;11.00;99.90;;;;;;4295152;28;10000156;-79
2024/04/01 11:10:58;;;;;;;11.35;8.27;;;11.10;99.90;;;;;;4968274;28;20492;-78
2024/04/01 11:13:26;;;;;;;13.80;12.20;;;11.20;99.90;;;;;;4968353;28;20051;-78
2024/04/01 11:15:55;;;;;;;11.55;10.00;;;11.30;99.90;;;;;;4970448;28;20141;-79
2024/04/01 11:18:36;;;;;;;7.97;5.93;;;11.30;99.90;;;;;;4950656;28;20383;-79
2024/04/01 11:21:11;;;;;;;10.43;7.82;;;11.40;99.90;;;;;;4981127;28;20129;-79
2024/04/01 11:23:58;;;;;;;8.07;6.88;;;11.40;99.90;;;;;;4971964;28;20133;-78
2024/04/01 11:26:52;;;;;;;9.27;7.65;;;11.50;99.90;;;;;;4994041;28;20534;-78
2024/04/01 11:29:38;;;;;;;7.75;6.43;;;11.50;99.90;;;;;;4986547;28;20030;-78
2024/04/01 11:32:13;;;;;;;8.27;7.07;;;11.50;99.90;;;;;;5008925;28;20528;-77
2024/04/01 11:35:03;;;;;;;7.07;5.97;;;11.50;99.90;;;;;;4987141;28;20026;-79
2024/04/01 11:37:38;;;;;;;5.22;4.45;;;11.60;99.90;;;;;;4974340;28;20064;-79
2024/04/01 11:40:06;;;;;;;8.45;5.22;;;11.50;99.90;;;;;;4981948;28;20039;-79
2024/04/01 11:42:31;;;;;;;10.73;7.63;;;11.60;99.90;;;;;;4962634;28;20302;-80
2024/04/01 11:44:59;;;;;;;6.40;5.15;;;11.50;99.90;;;;;;4967426;28;20031;-78
2024/04/01 11:47:24;;;;;;;13.40;11.05;;;11.50;99.90;;;;;;4963925;28;20591;-78
2024/04/01 11:49:50;;;;;;;14.77;11.45;;;11.70;99.90;;;;;;4987362;28;20129;-78
2024/04/01 11:52:17;;;;;;;6.20;5.03;;;11.80;99.90;;;;;;4968599;28;20038;-78
2024/04/01 11:54:43;;;;;;;11.63;7.80;;;11.90;99.90;;;;;;4982331;28;20054;-78
2024/04/01 11:57:10;;;;;;;13.45;9.65;;;12.00;99.90;;;;;;4957406;28;20448;-78
2024/04/01 11:59:36;;;;;;;12.98;8.90;;;12.10;99.90;;;;;;4969159;28;20511;-78
2024/04/01 12:02:11;;;;;;;12.43;10.35;;;12.20;99.90;;;;;;4969238;28;20036;-78
2024/04/01 12:04:37;;;;;;;9.70;7.15;;;12.30;99.90;;;;;;4968550;28;20034;-78
2024/04/01 12:07:04;;;;;;;8.20;5.18;;;12.30;99.90;;;;;;4982188;28;20544;-78
2024/04/01 12:09:31;;;;;;;10.45;7.68;;;12.30;99.90;;;;;;4967979;28;21574;-79
2024/04/01 12:11:57;;;;;;;8.13;6.20;;;12.10;99.90;;;;;;4985215;28;20038;-78
2024/04/01 12:14:27;;;;;;;8.73;6.32;;;12.20;99.90;;;;;;4967430;28;20034;-79
2024/04/01 12:16:57;;;;;;;12.85;9.70;;;12.30;99.90;;;;;;4974781;28;20175;-78
2024/04/01 12:19:29;;;;;;;10.27;7.93;;;12.20;99.90;;;;;;4967960;28;20027;-78
2024/04/01 12:21:54;;;;;;;11.18;8.85;;;12.50;99.90;;;;;;4985514;28;20051;-78
2024/04/01 12:24:22;;;;;;;10.95;8.77;;;12.50;99.90;;;;;;4990863;28;20037;-78
2024/04/01 12:26:51;;;;;;;10.30;6.82;;;12.40;99.90;;;;;;4976260;28;20057;-78
2024/04/01 12:29:17;;;;;;;9.60;7.57;;;12.50;99.90;;;;;;4960151;28;20026;-78
2024/04/01 12:31:48;;;;;;;10.50;8.50;;;12.60;99.90;;;;;;4974484;28;20045;-78
2024/04/01 12:34:14;;;;;;;8.93;7.32;;;12.80;99.90;;;;;;4961138;28;20030;-78
2024/04/01 12:36:40;;;;;;;9.63;7.75;;;12.90;99.90;;;;;;4989411;28;20039;-78
2024/04/01 12:39:08;;;;;;;10.07;5.38;;;13.00;99.90;;;;;;4977169;28;20141;-78
2024/04/01 12:41:33;;;;;;;9.25;4.97;;;13.10;99.90;;;;;;4976227;28;20499;-78
2024/04/01 12:43:59;;;;;;;7.07;4.93;;;13.00;99.90;;;;;;4974138;28;20030;-77
2024/04/01 12:46:26;;;;;;;10.52;4.60;;;12.80;99.90;;;;;;4973045;28;20166;-78
2024/04/01 12:48:54;;;;;;;6.15;5.03;;;12.80;99.90;;;;;;4960733;28;20083;-79
2024/04/01 12:51:22;;;;;;;7.57;3.50;;;12.80;99.90;;;;;;4960170;28;20395;-78
2024/04/01 12:54:14;;;;;;;4.45;3.15;;;12.90;99.90;;;;;;4956220;28;20037;-78
2024/04/01 12:56:41;;;;;;;6.43;4.35;;;12.80;99.90;;;;;;4990213;28;20125;-78